sensor_id;sensor_type;location;lat;lon;timestamp;temperature;humidity
23233;DHT22;11785;49.500;8.288;2024-02-21T00:01:22;8.70;98.90
23233;DHT22;11785;49.500;8.288;2024-02-21T00:03:48;8.70;98.80
23233;DHT22;11785;49.500;8.288;2024-02-21T00:06:13;8.70;98.80
23233;DHT22;11785;49.500;8.288;2024-02-21T00:08:39;8.70;98.60
23233;DHT22;11785;49.500;8.288;2024-02-21T00:11:04;8.70;98.60
23233;DHT22;11785;49.500;8.288;2024-02-21T00:13:30;8.70;98.70
23233;DHT22;11785;49.500;8.288;2024-02-21T00:15:55;8.80;98.30
23233;DHT22;11785;49.500;8.288;2024-02-21T00:18:21;8.80;98.20
23233;DHT22;11785;49.500;8.288;2024-02-21T00:20:47;8.80;98.00
23233;DHT22;11785;49.500;8.288;2024-02-21T00:23:12;8.90;97.60
23233;DHT22;11785;49.500;8.288;2024-02-21T00:25:38;8.90;97.60
23233;DHT22;11785;49.500;8.288;2024-02-21T00:28:04;8.90;97.60
23233;DHT22;11785;49.500;8.288;2024-02-21T00:30:31;8.80;98.00
23233;DHT22;11785;49.500;8.288;2024-02-21T00:32:57;8.80;98.10
23233;DHT22;11785;49.500;8.288;2024-02-21T00:35:22;8.80;98.10
23233;DHT22;11785;49.500;8.288;2024-02-21T00:37:48;8.80;98.10
23233;DHT22;11785;49.500;8.288;2024-02-21T00:40:13;8.90;97.60
23233;DHT22;11785;49.500;8.288;2024-02-21T00:42:45;8.90;97.40
23233;DHT22;11785;49.500;8.288;2024-02-21T00:45:11;9.00;97.10
23233;DHT22;11785;49.500;8.288;2024-02-21T00:47:37;9.00;97.10
23233;DHT22;11785;49.500;8.288;2024-02-21T00:50:02;8.90;97.30
23233;DHT22;11785;49.500;8.288;2024-02-21T00:52:28;8.90;97.50
23233;DHT22;11785;49.500;8.288;2024-02-21T00:54:53;8.80;97.80
23233;DHT22;11785;49.500;8.288;2024-02-21T00:57:19;8.80;97.70
23233;DHT22;11785;49.500;8.288;2024-02-21T00:59:45;8.80;97.80
23233;DHT22;11785;49.500;8.288;2024-02-21T01:02:10;8.80;97.90
23233;DHT22;11785;49.500;8.288;2024-02-21T01:04:36;8.70;98.40
23233;DHT22;11785;49.500;8.288;2024-02-21T01:07:02;8.70;98.70
23233;DHT22;11785;49.500;8.288;2024-02-21T01:09:27;8.60;99.70
23233;DHT22;11785;49.500;8.288;2024-02-21T01:11:53;8.50;99.90
23233;DHT22;11785;49.500;8.288;2024-02-21T01:14:19;8.40;99.90
23233;DHT22;11785;49.500;8.288;2024-02-21T01:16:44;8.40;99.90
23233;DHT22;11785;49.500;8.288;2024-02-21T01:19:10;8.30;99.90
23233;DHT22;11785;49.500;8.288;2024-02-21T01:21:35;8.50;99.60
23233;DHT22;11785;49.500;8.288;2024-02-21T01:24:01;8.50;99.60
23233;DHT22;11785;49.500;8.288;2024-02-21T01:26:26;8.60;99.30
23233;DHT22;11785;49.500;8.288;2024-02-21T01:28:52;8.60;99.10
23233;DHT22;11785;49.500;8.288;2024-02-21T01:31:17;8.60;99.10
23233;DHT22;11785;49.500;8.288;2024-02-21T01:33:43;8.60;99.10
23233;DHT22;11785;49.500;8.288;2024-02-21T01:36:08;8.60;99.10
23233;DHT22;11785;49.500;8.288;2024-02-21T01:38:34;8.50;99.40
23233;DHT22;11785;49.500;8.288;2024-02-21T01:41:00;8.50;99.60
23233;DHT22;11785;49.500;8.288;2024-02-21T01:43:26;8.50;99.60
23233;DHT22;11785;49.500;8.288;2024-02-21T01:45:55;8.60;99.10
23233;DHT22;11785;49.500;8.288;2024-02-21T01:48:25;8.60;99.00
23233;DHT22;11785;49.500;8.288;2024-02-21T01:50:51;8.60;98.90
23233;DHT22;11785;49.500;8.288;2024-02-21T01:53:23;8.60;98.90
23233;DHT22;11785;49.500;8.288;2024-02-21T01:55:50;8.60;98.90
23233;DHT22;11785;49.500;8.288;2024-02-21T01:58:16;8.60;98.90
23233;DHT22;11785;49.500;8.288;2024-02-21T02:00:44;8.60;98.90
23233;DHT22;11785;49.500;8.288;2024-02-21T02:03:11;8.70;98.50
23233;DHT22;11785;49.500;8.288;2024-02-21T02:05:45;8.70;98.20
23233;DHT22;11785;49.500;8.288;2024-02-21T02:08:13;8.70;98.20
23233;DHT22;11785;49.500;8.288;2024-02-21T02:10:39;8.70;98.30
23233;DHT22;11785;49.500;8.288;2024-02-21T02:13:05;8.60;98.60
23233;DHT22;11785;49.500;8.288;2024-02-21T02:15:41;8.70;98.20
23233;DHT22;11785;49.500;8.288;2024-02-21T02:18:06;8.80;97.70
23233;DHT22;11785;49.500;8.288;2024-02-21T02:20:32;8.70;98.60
23233;DHT22;11785;49.500;8.288;2024-02-21T02:22:59;8.50;99.80
23233;DHT22;11785;49.500;8.288;2024-02-21T02:25:26;8.30;99.90
23233;DHT22;11785;49.500;8.288;2024-02-21T02:27:51;8.10;99.90
23233;DHT22;11785;49.500;8.288;2024-02-21T02:30:17;7.90;99.90
23233;DHT22;11785;49.500;8.288;2024-02-21T02:32:46;7.80;99.90
23233;DHT22;11785;49.500;8.288;2024-02-21T02:35:12;7.60;99.90
23233;DHT22;11785;49.500;8.288;2024-02-21T02:37:37;7.60;99.90
23233;DHT22;11785;49.500;8.288;2024-02-21T02:40:05;7.50;99.90
23233;DHT22;11785;49.500;8.288;2024-02-21T02:42:31;7.50;99.90
23233;DHT22;11785;49.500;8.288;2024-02-21T02:44:57;7.50;99.90
23233;DHT22;11785;49.500;8.288;2024-02-21T02:47:23;7.50;99.90
23233;DHT22;11785;49.500;8.288;2024-02-21T02:49:48;7.50;99.90
23233;DHT22;11785;49.500;8.288;2024-02-21T02:52:16;7.50;99.90
23233;DHT22;11785;49.500;8.288;2024-02-21T02:54:43;7.40;99.90
23233;DHT22;11785;49.500;8.288;2024-02-21T02:57:09;7.40;99.90
23233;DHT22;11785;49.500;8.288;2024-02-21T02:59:35;7.40;99.90
23233;DHT22;11785;49.500;8.288;2024-02-21T03:02:00;7.40;99.90
23233;DHT22;11785;49.500;8.288;2024-02-21T03:04:26;7.30;99.90
23233;DHT22;11785;49.500;8.288;2024-02-21T03:06:51;7.30;99.90
23233;DHT22;11785;49.500;8.288;2024-02-21T03:09:17;7.30;99.90
23233;DHT22;11785;49.500;8.288;2024-02-21T03:11:43;7.20;99.90
23233;DHT22;11785;49.500;8.288;2024-02-21T03:14:09;7.20;99.90
23233;DHT22;11785;49.500;8.288;2024-02-21T03:16:35;7.20;99.90
23233;DHT22;11785;49.500;8.288;2024-02-21T03:19:01;7.20;99.90
23233;DHT22;11785;49.500;8.288;2024-02-21T03:21:26;7.20;99.90
23233;DHT22;11785;49.500;8.288;2024-02-21T03:23:52;7.20;99.90
23233;DHT22;11785;49.500;8.288;2024-02-21T03:26:17;7.30;99.90
23233;DHT22;11785;49.500;8.288;2024-02-21T03:28:44;7.30;99.90
23233;DHT22;11785;49.500;8.288;2024-02-21T03:31:11;7.20;99.90
23233;DHT22;11785;49.500;8.288;2024-02-21T03:33:39;7.10;99.90
23233;DHT22;11785;49.500;8.288;2024-02-21T03:36:05;7.10;99.90
23233;DHT22;11785;49.500;8.288;2024-02-21T03:38:31;7.00;99.90
23233;DHT22;11785;49.500;8.288;2024-02-21T03:40:56;7.00;99.90
23233;DHT22;11785;49.500;8.288;2024-02-21T03:43:22;7.10;99.90
23233;DHT22;11785;49.500;8.288;2024-02-21T03:45:47;7.10;99.90
23233;DHT22;11785;49.500;8.288;2024-02-21T03:48:13;7.20;99.90
23233;DHT22;11785;49.500;8.288;2024-02-21T03:50:38;7.30;99.90
23233;DHT22;11785;49.500;8.288;2024-02-21T03:53:04;7.30;99.90
23233;DHT22;11785;49.500;8.288;2024-02-21T03:55:30;7.30;99.90
23233;DHT22;11785;49.500;8.288;2024-02-21T03:57:55;7.30;99.90
23233;DHT22;11785;49.500;8.288;2024-02-21T04:00:21;7.30;99.90
23233;DHT22;11785;49.500;8.288;2024-02-21T04:02:46;7.40;99.90
23233;DHT22;11785;49.500;8.288;2024-02-21T04:05:15;7.40;99.90
23233;DHT22;11785;49.500;8.288;2024-02-21T04:07:41;7.40;99.90
23233;DHT22;11785;49.500;8.288;2024-02-21T04:10:08;7.40;99.90
23233;DHT22;11785;49.500;8.288;2024-02-21T04:12:33;7.40;99.90
23233;DHT22;11785;49.500;8.288;2024-02-21T04:14:59;7.50;99.90
23233;DHT22;11785;49.500;8.288;2024-02-21T04:17:25;7.40;99.90
23233;DHT22;11785;49.500;8.288;2024-02-21T04:19:50;7.40;99.90
23233;DHT22;11785;49.500;8.288;2024-02-21T04:22:17;7.40;99.90
23233;DHT22;11785;49.500;8.288;2024-02-21T04:24:43;7.40;99.90
23233;DHT22;11785;49.500;8.288;2024-02-21T04:27:08;7.40;99.90
23233;DHT22;11785;49.500;8.288;2024-02-21T04:29:34;7.40;99.90
23233;DHT22;11785;49.500;8.288;2024-02-21T04:32:01;7.40;99.90
23233;DHT22;11785;49.500;8.288;2024-02-21T04:34:27;7.40;99.90
23233;DHT22;11785;49.500;8.288;2024-02-21T04:36:53;7.40;99.90
23233;DHT22;11785;49.500;8.288;2024-02-21T04:39:18;7.40;99.90
23233;DHT22;11785;49.500;8.288;2024-02-21T04:41:44;7.40;99.90
23233;DHT22;11785;49.500;8.288;2024-02-21T04:44:09;7.40;99.90
23233;DHT22;11785;49.500;8.288;2024-02-21T04:46:35;7.40;99.90
23233;DHT22;11785;49.500;8.288;2024-02-21T04:49:00;7.40;99.90
23233;DHT22;11785;49.500;8.288;2024-02-21T04:51:26;7.30;99.90
23233;DHT22;11785;49.500;8.288;2024-02-21T04:53:51;7.30;99.90
23233;DHT22;11785;49.500;8.288;2024-02-21T04:56:17;7.30;99.90
23233;DHT22;11785;49.500;8.288;2024-02-21T04:58:42;7.30;99.90
23233;DHT22;11785;49.500;8.288;2024-02-21T05:01:08;7.30;99.90
23233;DHT22;11785;49.500;8.288;2024-02-21T05:03:34;7.30;99.90
23233;DHT22;11785;49.500;8.288;2024-02-21T05:05:59;7.40;99.90
23233;DHT22;11785;49.500;8.288;2024-02-21T05:08:26;7.40;99.90
23233;DHT22;11785;49.500;8.288;2024-02-21T05:10:51;7.40;99.90
23233;DHT22;11785;49.500;8.288;2024-02-21T05:13:17;7.40;99.90
23233;DHT22;11785;49.500;8.288;2024-02-21T05:15:42;7.50;99.90
23233;DHT22;11785;49.500;8.288;2024-02-21T05:18:08;7.50;99.90
23233;DHT22;11785;49.500;8.288;2024-02-21T05:20:33;7.40;99.90
23233;DHT22;11785;49.500;8.288;2024-02-21T05:22:59;7.40;99.90
23233;DHT22;11785;49.500;8.288;2024-02-21T05:25:24;7.30;99.90
23233;DHT22;11785;49.500;8.288;2024-02-21T05:27:51;7.30;99.90
23233;DHT22;11785;49.500;8.288;2024-02-21T05:30:19;7.30;99.90
23233;DHT22;11785;49.500;8.288;2024-02-21T05:32:44;7.20;99.90
23233;DHT22;11785;49.500;8.288;2024-02-21T05:35:10;7.20;99.90
23233;DHT22;11785;49.500;8.288;2024-02-21T05:37:35;7.10;99.90
23233;DHT22;11785;49.500;8.288;2024-02-21T05:40:01;7.00;99.90
23233;DHT22;11785;49.500;8.288;2024-02-21T05:42:26;6.90;99.90
23233;DHT22;11785;49.500;8.288;2024-02-21T05:44:52;6.80;99.90
23233;DHT22;11785;49.500;8.288;2024-02-21T05:47:17;6.70;99.90
23233;DHT22;11785;49.500;8.288;2024-02-21T05:49:45;6.60;99.90
23233;DHT22;11785;49.500;8.288;2024-02-21T05:52:11;6.50;99.90
23233;DHT22;11785;49.500;8.288;2024-02-21T05:54:39;6.40;99.90
23233;DHT22;11785;49.500;8.288;2024-02-21T05:57:05;6.40;99.90
23233;DHT22;11785;49.500;8.288;2024-02-21T05:59:31;6.30;99.90
23233;DHT22;11785;49.500;8.288;2024-02-21T06:01:57;6.30;99.90
23233;DHT22;11785;49.500;8.288;2024-02-21T06:04:23;6.20;99.90
23233;DHT22;11785;49.500;8.288;2024-02-21T06:06:48;6.20;99.90
23233;DHT22;11785;49.500;8.288;2024-02-21T06:09:14;6.10;99.90
23233;DHT22;11785;49.500;8.288;2024-02-21T06:11:39;6.10;99.90
23233;DHT22;11785;49.500;8.288;2024-02-21T06:14:05;6.10;99.90
23233;DHT22;11785;49.500;8.288;2024-02-21T06:16:31;6.10;99.90
23233;DHT22;11785;49.500;8.288;2024-02-21T06:18:56;6.00;99.90
23233;DHT22;11785;49.500;8.288;2024-02-21T06:21:22;6.00;99.90
23233;DHT22;11785;49.500;8.288;2024-02-21T06:23:47;6.00;99.90
23233;DHT22;11785;49.500;8.288;2024-02-21T06:26:13;6.00;99.90
23233;DHT22;11785;49.500;8.288;2024-02-21T06:28:38;5.90;99.90
23233;DHT22;11785;49.500;8.288;2024-02-21T06:31:04;5.90;99.90
23233;DHT22;11785;49.500;8.288;2024-02-21T06:33:29;5.80;99.90
23233;DHT22;11785;49.500;8.288;2024-02-21T06:35:55;5.80;99.90
23233;DHT22;11785;49.500;8.288;2024-02-21T06:38:20;5.80;99.90
23233;DHT22;11785;49.500;8.288;2024-02-21T06:40:46;5.80;99.90
23233;DHT22;11785;49.500;8.288;2024-02-21T06:43:17;5.90;99.90
23233;DHT22;11785;49.500;8.288;2024-02-21T06:45:43;5.90;99.90
23233;DHT22;11785;49.500;8.288;2024-02-21T06:48:12;5.90;99.90
23233;DHT22;11785;49.500;8.288;2024-02-21T06:50:38;5.90;99.90
23233;DHT22;11785;49.500;8.288;2024-02-21T06:53:04;6.00;99.90
23233;DHT22;11785;49.500;8.288;2024-02-21T06:55:29;5.90;99.90
23233;DHT22;11785;49.500;8.288;2024-02-21T06:57:55;5.90;99.90
23233;DHT22;11785;49.500;8.288;2024-02-21T07:00:20;6.00;99.90
23233;DHT22;11785;49.500;8.288;2024-02-21T07:02:46;6.00;99.90
23233;DHT22;11785;49.500;8.288;2024-02-21T07:05:13;6.00;99.90
23233;DHT22;11785;49.500;8.288;2024-02-21T07:07:38;6.10;99.90
23233;DHT22;11785;49.500;8.288;2024-02-21T07:10:06;6.10;99.90
23233;DHT22;11785;49.500;8.288;2024-02-21T07:12:31;6.20;99.90
23233;DHT22;11785;49.500;8.288;2024-02-21T07:14:57;6.30;99.90
23233;DHT22;11785;49.500;8.288;2024-02-21T07:17:22;6.30;99.90
23233;DHT22;11785;49.500;8.288;2024-02-21T07:19:48;6.40;99.90
23233;DHT22;11785;49.500;8.288;2024-02-21T07:22:13;6.50;99.90
23233;DHT22;11785;49.500;8.288;2024-02-21T07:24:39;6.50;99.90
23233;DHT22;11785;49.500;8.288;2024-02-21T07:27:04;6.60;99.90
23233;DHT22;11785;49.500;8.288;2024-02-21T07:29:30;6.70;99.90
23233;DHT22;11785;49.500;8.288;2024-02-21T07:31:56;6.80;99.90
23233;DHT22;11785;49.500;8.288;2024-02-21T07:34:21;6.80;99.90
23233;DHT22;11785;49.500;8.288;2024-02-21T07:36:47;6.90;99.90
23233;DHT22;11785;49.500;8.288;2024-02-21T07:39:12;6.90;99.90
23233;DHT22;11785;49.500;8.288;2024-02-21T07:41:38;7.00;99.90
23233;DHT22;11785;49.500;8.288;2024-02-21T07:44:04;7.00;99.90
23233;DHT22;11785;49.500;8.288;2024-02-21T07:46:30;7.00;99.90
23233;DHT22;11785;49.500;8.288;2024-02-21T07:48:56;7.00;99.90
23233;DHT22;11785;49.500;8.288;2024-02-21T07:51:21;7.00;99.90
23233;DHT22;11785;49.500;8.288;2024-02-21T07:53:47;7.10;99.90
23233;DHT22;11785;49.500;8.288;2024-02-21T07:56:14;7.10;99.90
23233;DHT22;11785;49.500;8.288;2024-02-21T07:58:41;7.20;99.90
23233;DHT22;11785;49.500;8.288;2024-02-21T08:01:06;7.20;99.90
23233;DHT22;11785;49.500;8.288;2024-02-21T08:03:32;7.30;99.90
23233;DHT22;11785;49.500;8.288;2024-02-21T08:05:58;7.40;99.90
23233;DHT22;11785;49.500;8.288;2024-02-21T08:08:23;7.40;99.90
23233;DHT22;11785;49.500;8.288;2024-02-21T08:10:50;7.50;99.90
23233;DHT22;11785;49.500;8.288;2024-02-21T08:13:15;7.50;99.90
23233;DHT22;11785;49.500;8.288;2024-02-21T08:15:41;7.60;99.90
23233;DHT22;11785;49.500;8.288;2024-02-21T08:18:07;7.60;99.90
23233;DHT22;11785;49.500;8.288;2024-02-21T08:20:33;7.70;99.90
23233;DHT22;11785;49.500;8.288;2024-02-21T08:22:59;7.80;99.90
23233;DHT22;11785;49.500;8.288;2024-02-21T08:25:24;7.90;99.90
23233;DHT22;11785;49.500;8.288;2024-02-21T08:27:50;8.00;99.90
23233;DHT22;11785;49.500;8.288;2024-02-21T08:30:17;8.00;99.90
23233;DHT22;11785;49.500;8.288;2024-02-21T08:32:42;7.90;99.90
23233;DHT22;11785;49.500;8.288;2024-02-21T08:35:08;8.00;99.90
23233;DHT22;11785;49.500;8.288;2024-02-21T08:37:34;7.90;99.90
23233;DHT22;11785;49.500;8.288;2024-02-21T08:39:59;8.00;99.90
23233;DHT22;11785;49.500;8.288;2024-02-21T08:42:30;8.10;99.90
23233;DHT22;11785;49.500;8.288;2024-02-21T08:44:55;8.10;99.90
23233;DHT22;11785;49.500;8.288;2024-02-21T08:47:21;8.20;99.90
23233;DHT22;11785;49.500;8.288;2024-02-21T08:49:46;8.20;99.90
23233;DHT22;11785;49.500;8.288;2024-02-21T08:52:13;8.20;99.90
23233;DHT22;11785;49.500;8.288;2024-02-21T08:54:38;8.30;99.90
23233;DHT22;11785;49.500;8.288;2024-02-21T08:57:04;8.50;99.90
23233;DHT22;11785;49.500;8.288;2024-02-21T08:59:30;8.70;99.90
23233;DHT22;11785;49.500;8.288;2024-02-21T09:01:55;8.80;99.90
23233;DHT22;11785;49.500;8.288;2024-02-21T09:04:21;8.90;99.90
23233;DHT22;11785;49.500;8.288;2024-02-21T09:06:46;9.00;99.90
23233;DHT22;11785;49.500;8.288;2024-02-21T09:09:12;9.20;99.90
23233;DHT22;11785;49.500;8.288;2024-02-21T09:11:38;9.40;99.30
23233;DHT22;11785;49.500;8.288;2024-02-21T09:14:03;9.50;98.50
23233;DHT22;11785;49.500;8.288;2024-02-21T09:16:33;9.60;98.40
23233;DHT22;11785;49.500;8.288;2024-02-21T09:18:59;9.80;97.60
23233;DHT22;11785;49.500;8.288;2024-02-21T09:21:24;9.80;97.30
23233;DHT22;11785;49.500;8.288;2024-02-21T09:23:50;9.90;96.80
23233;DHT22;11785;49.500;8.288;2024-02-21T09:26:16;9.80;97.20
23233;DHT22;11785;49.500;8.288;2024-02-21T09:28:43;9.90;96.70
23233;DHT22;11785;49.500;8.288;2024-02-21T09:31:09;9.90;96.80
23233;DHT22;11785;49.500;8.288;2024-02-21T09:33:35;10.00;96.40
23233;DHT22;11785;49.500;8.288;2024-02-21T09:36:01;10.00;96.20
23233;DHT22;11785;49.500;8.288;2024-02-21T09:38:26;10.10;95.70
23233;DHT22;11785;49.500;8.288;2024-02-21T09:41:08;10.20;95.60
23233;DHT22;11785;49.500;8.288;2024-02-21T09:43:38;10.30;94.80
23233;DHT22;11785;49.500;8.288;2024-02-21T09:46:05;10.30;93.70
23233;DHT22;11785;49.500;8.288;2024-02-21T09:51:13;10.20;93.90
23233;DHT22;11785;49.500;8.288;2024-02-21T09:53:40;10.10;94.20
23233;DHT22;11785;49.500;8.288;2024-02-21T09:56:10;10.10;94.10
23233;DHT22;11785;49.500;8.288;2024-02-21T09:58:37;10.20;93.40
23233;DHT22;11785;49.500;8.288;2024-02-21T10:01:03;10.10;93.70
23233;DHT22;11785;49.500;8.288;2024-02-21T10:03:32;10.20;93.40
23233;DHT22;11785;49.500;8.288;2024-02-21T10:06:01;10.30;93.30
23233;DHT22;11785;49.500;8.288;2024-02-21T10:08:27;10.40;92.50
23233;DHT22;11785;49.500;8.288;2024-02-21T10:10:52;10.40;92.60
23233;DHT22;11785;49.500;8.288;2024-02-21T10:13:28;10.50;91.90
23233;DHT22;11785;49.500;8.288;2024-02-21T10:16:04;10.40;92.30
23233;DHT22;11785;49.500;8.288;2024-02-21T10:18:30;10.50;91.90
23233;DHT22;11785;49.500;8.288;2024-02-21T10:21:14;10.70;91.30
23233;DHT22;11785;49.500;8.288;2024-02-21T10:23:50;10.60;91.50
23233;DHT22;11785;49.500;8.288;2024-02-21T10:26:17;10.60;91.60
23233;DHT22;11785;49.500;8.288;2024-02-21T10:28:43;10.70;91.10
23233;DHT22;11785;49.500;8.288;2024-02-21T10:31:11;10.90;90.50
23233;DHT22;11785;49.500;8.288;2024-02-21T10:33:37;10.90;90.50
23233;DHT22;11785;49.500;8.288;2024-02-21T10:36:10;11.00;89.60
23233;DHT22;11785;49.500;8.288;2024-02-21T10:38:39;11.00;89.40
23233;DHT22;11785;49.500;8.288;2024-02-21T10:41:07;10.90;90.40
23233;DHT22;11785;49.500;8.288;2024-02-21T10:43:40;10.80;90.50
23233;DHT22;11785;49.500;8.288;2024-02-21T10:46:06;10.90;90.20
23233;DHT22;11785;49.500;8.288;2024-02-21T10:49:13;11.00;89.00
23233;DHT22;11785;49.500;8.288;2024-02-21T10:51:43;10.90;89.40
23233;DHT22;11785;49.500;8.288;2024-02-21T10:54:39;11.00;88.70
23233;DHT22;11785;49.500;8.288;2024-02-21T10:57:06;11.10;88.20
23233;DHT22;11785;49.500;8.288;2024-02-21T10:59:34;11.20;87.40
23233;DHT22;11785;49.500;8.288;2024-02-21T11:02:02;11.30;86.80
23233;DHT22;11785;49.500;8.288;2024-02-21T11:04:28;11.40;86.20
23233;DHT22;11785;49.500;8.288;2024-02-21T11:06:56;11.50;85.00
23233;DHT22;11785;49.500;8.288;2024-02-21T11:09:30;11.70;83.10
23233;DHT22;11785;49.500;8.288;2024-02-21T11:11:57;12.00;80.50
23233;DHT22;11785;49.500;8.288;2024-02-21T11:14:26;12.20;78.30
23233;DHT22;11785;49.500;8.288;2024-02-21T11:16:52;11.90;80.00
23233;DHT22;11785;49.500;8.288;2024-02-21T11:19:22;11.80;80.80
23233;DHT22;11785;49.500;8.288;2024-02-21T11:21:50;11.80;80.90
23233;DHT22;11785;49.500;8.288;2024-02-21T11:24:32;11.60;82.30
23233;DHT22;11785;49.500;8.288;2024-02-21T11:27:19;11.60;82.30
23233;DHT22;11785;49.500;8.288;2024-02-21T11:29:58;11.60;82.80
23233;DHT22;11785;49.500;8.288;2024-02-21T11:32:25;11.80;81.70
23233;DHT22;11785;49.500;8.288;2024-02-21T11:34:59;12.00;79.90
23233;DHT22;11785;49.500;8.288;2024-02-21T11:37:32;12.10;78.30
23233;DHT22;11785;49.500;8.288;2024-02-21T11:40:04;11.70;80.30
23233;DHT22;11785;49.500;8.288;2024-02-21T11:42:32;11.40;83.80
23233;DHT22;11785;49.500;8.288;2024-02-21T11:44:59;11.60;83.00
23233;DHT22;11785;49.500;8.288;2024-02-21T11:47:25;11.70;82.30
23233;DHT22;11785;49.500;8.288;2024-02-21T11:49:51;11.70;81.70
23233;DHT22;11785;49.500;8.288;2024-02-21T11:52:24;11.70;81.40
23233;DHT22;11785;49.500;8.288;2024-02-21T11:54:53;11.90;79.90
23233;DHT22;11785;49.500;8.288;2024-02-21T11:57:21;12.00;79.10
23233;DHT22;11785;49.500;8.288;2024-02-21T11:59:46;12.10;78.30
23233;DHT22;11785;49.500;8.288;2024-02-21T12:02:12;12.20;77.50
23233;DHT22;11785;49.500;8.288;2024-02-21T12:04:39;12.00;78.80
23233;DHT22;11785;49.500;8.288;2024-02-21T12:07:05;12.10;77.90
23233;DHT22;11785;49.500;8.288;2024-02-21T12:09:31;12.10;77.20
23233;DHT22;11785;49.500;8.288;2024-02-21T12:12:01;12.10;77.50
23233;DHT22;11785;49.500;8.288;2024-02-21T12:14:29;12.10;77.10
23233;DHT22;11785;49.500;8.288;2024-02-21T12:16:55;12.20;76.20
23233;DHT22;11785;49.500;8.288;2024-02-21T12:19:21;12.10;77.20
23233;DHT22;11785;49.500;8.288;2024-02-21T12:21:48;12.30;74.70
23233;DHT22;11785;49.500;8.288;2024-02-21T12:26:41;12.30;74.10
23233;DHT22;11785;49.500;8.288;2024-02-21T12:29:07;12.20;74.80
23233;DHT22;11785;49.500;8.288;2024-02-21T12:31:39;12.10;74.90
23233;DHT22;11785;49.500;8.288;2024-02-21T12:34:05;12.20;74.20
23233;DHT22;11785;49.500;8.288;2024-02-21T12:36:35;12.20;74.10
23233;DHT22;11785;49.500;8.288;2024-02-21T12:39:01;12.20;74.50
23233;DHT22;11785;49.500;8.288;2024-02-21T12:41:29;12.20;73.70
23233;DHT22;11785;49.500;8.288;2024-02-21T12:43:55;12.10;74.60
23233;DHT22;11785;49.500;8.288;2024-02-21T12:46:22;12.20;73.60
23233;DHT22;11785;49.500;8.288;2024-02-21T12:48:47;12.20;72.60
23233;DHT22;11785;49.500;8.288;2024-02-21T12:51:13;12.20;72.70
23233;DHT22;11785;49.500;8.288;2024-02-21T12:53:39;12.20;72.30
23233;DHT22;11785;49.500;8.288;2024-02-21T12:56:05;12.10;73.10
23233;DHT22;11785;49.500;8.288;2024-02-21T12:58:32;12.10;72.80
23233;DHT22;11785;49.500;8.288;2024-02-21T13:00:58;12.20;72.40
23233;DHT22;11785;49.500;8.288;2024-02-21T13:03:24;12.20;71.80
23233;DHT22;11785;49.500;8.288;2024-02-21T13:05:49;12.20;72.40
23233;DHT22;11785;49.500;8.288;2024-02-21T13:08:15;12.30;70.80
23233;DHT22;11785;49.500;8.288;2024-02-21T13:10:40;12.20;71.70
23233;DHT22;11785;49.500;8.288;2024-02-21T13:13:06;12.20;71.90
23233;DHT22;11785;49.500;8.288;2024-02-21T13:15:31;12.20;72.20
23233;DHT22;11785;49.500;8.288;2024-02-21T13:17:57;12.20;72.90
23233;DHT22;11785;49.500;8.288;2024-02-21T13:20:24;12.20;71.70
23233;DHT22;11785;49.500;8.288;2024-02-21T13:22:50;12.20;71.70
23233;DHT22;11785;49.500;8.288;2024-02-21T13:25:16;12.00;73.50
23233;DHT22;11785;49.500;8.288;2024-02-21T13:27:44;12.00;72.30
23233;DHT22;11785;49.500;8.288;2024-02-21T13:30:10;12.00;72.30
23233;DHT22;11785;49.500;8.288;2024-02-21T13:32:36;12.10;72.90
23233;DHT22;11785;49.500;8.288;2024-02-21T13:35:02;12.20;72.20
23233;DHT22;11785;49.500;8.288;2024-02-21T13:37:28;12.10;72.80
23233;DHT22;11785;49.500;8.288;2024-02-21T13:39:54;12.10;72.90
23233;DHT22;11785;49.500;8.288;2024-02-21T13:42:20;12.00;73.40
23233;DHT22;11785;49.500;8.288;2024-02-21T13:44:46;12.00;72.70
23233;DHT22;11785;49.500;8.288;2024-02-21T13:47:14;11.90;73.30
23233;DHT22;11785;49.500;8.288;2024-02-21T13:49:40;11.90;73.80
23233;DHT22;11785;49.500;8.288;2024-02-21T13:52:06;11.80;74.80
23233;DHT22;11785;49.500;8.288;2024-02-21T13:54:32;11.80;74.70
23233;DHT22;11785;49.500;8.288;2024-02-21T13:56:57;11.80;73.90
23233;DHT22;11785;49.500;8.288;2024-02-21T13:59:23;11.80;73.80
23233;DHT22;11785;49.500;8.288;2024-02-21T14:01:48;11.80;74.00
23233;DHT22;11785;49.500;8.288;2024-02-21T14:04:14;11.80;74.00
23233;DHT22;11785;49.500;8.288;2024-02-21T14:06:40;11.80;73.80
23233;DHT22;11785;49.500;8.288;2024-02-21T14:09:12;11.80;74.00
23233;DHT22;11785;49.500;8.288;2024-02-21T14:11:38;11.80;73.20
23233;DHT22;11785;49.500;8.288;2024-02-21T14:14:05;11.80;73.40
23233;DHT22;11785;49.500;8.288;2024-02-21T14:16:31;11.70;73.40
23233;DHT22;11785;49.500;8.288;2024-02-21T14:18:57;11.70;74.10
23233;DHT22;11785;49.500;8.288;2024-02-21T14:21:22;11.80;73.90
23233;DHT22;11785;49.500;8.288;2024-02-21T14:23:48;11.90;73.90
23233;DHT22;11785;49.500;8.288;2024-02-21T14:26:14;11.90;73.10
23233;DHT22;11785;49.500;8.288;2024-02-21T14:28:42;12.00;72.90
23233;DHT22;11785;49.500;8.288;2024-02-21T14:31:07;12.00;72.40
23233;DHT22;11785;49.500;8.288;2024-02-21T14:33:36;12.20;70.50
23233;DHT22;11785;49.500;8.288;2024-02-21T14:36:02;12.10;70.40
23233;DHT22;11785;49.500;8.288;2024-02-21T14:38:30;12.10;71.00
23233;DHT22;11785;49.500;8.288;2024-02-21T14:40:56;12.10;69.90
23233;DHT22;11785;49.500;8.288;2024-02-21T14:43:22;12.10;70.20
23233;DHT22;11785;49.500;8.288;2024-02-21T14:45:48;12.10;70.20
23233;DHT22;11785;49.500;8.288;2024-02-21T14:48:14;12.10;70.60
23233;DHT22;11785;49.500;8.288;2024-02-21T14:50:40;12.10;71.50
23233;DHT22;11785;49.500;8.288;2024-02-21T14:53:06;12.00;71.60
23233;DHT22;11785;49.500;8.288;2024-02-21T14:55:33;11.90;71.70
23233;DHT22;11785;49.500;8.288;2024-02-21T14:57:59;11.70;72.10
23233;DHT22;11785;49.500;8.288;2024-02-21T15:00:26;11.70;72.50
23233;DHT22;11785;49.500;8.288;2024-02-21T15:02:56;11.60;73.50
23233;DHT22;11785;49.500;8.288;2024-02-21T15:05:22;11.50;74.30
23233;DHT22;11785;49.500;8.288;2024-02-21T15:07:48;11.60;74.10
23233;DHT22;11785;49.500;8.288;2024-02-21T15:10:14;11.50;74.10
23233;DHT22;11785;49.500;8.288;2024-02-21T15:12:39;11.50;74.40
23233;DHT22;11785;49.500;8.288;2024-02-21T15:15:06;11.40;75.00
23233;DHT22;11785;49.500;8.288;2024-02-21T15:17:33;11.40;75.70
23233;DHT22;11785;49.500;8.288;2024-02-21T15:19:59;11.30;76.30
23233;DHT22;11785;49.500;8.288;2024-02-21T15:22:26;11.30;76.50
23233;DHT22;11785;49.500;8.288;2024-02-21T15:24:52;11.20;76.80
23233;DHT22;11785;49.500;8.288;2024-02-21T15:27:18;11.20;77.40
23233;DHT22;11785;49.500;8.288;2024-02-21T15:29:43;11.20;76.60
23233;DHT22;11785;49.500;8.288;2024-02-21T15:32:10;11.10;77.60
23233;DHT22;11785;49.500;8.288;2024-02-21T15:34:36;11.10;77.20
23233;DHT22;11785;49.500;8.288;2024-02-21T15:37:01;11.10;77.40
23233;DHT22;11785;49.500;8.288;2024-02-21T15:39:27;11.00;77.70
23233;DHT22;11785;49.500;8.288;2024-02-21T15:41:54;11.00;78.20